Brush, Colorado
Current Conditions -  °F | °C
As of 7:35 PM on Tuesday 21 Oct 2014 (Local Time) from KFMM Reporting Station
Clear Clear  
Wind Chill: 62°   Ceiling: Unl
Heat Index: 62°   Visibility: 10mi
Dew Point: 36°   Wind: 8mph
Humidity: 38%   Direction: 150°SSE
Pressure: 29.89"   Gusts: NA
Location:  40.26°N, 103.62°W
Report Text: KFMM 220135Z AUTO 15007KT 10SM CLR 17/02 A2989 RMK AO2 T01670023
Loading
Personal Weather Stations






























Interactive Weather Map New forecast layout! Learn more

10-Day Weather Forecast

Advertisements
Track Severe Weather on mobile